Terminal Aerodrome Forecast
Issued by NWS Memphis, TN

Current Version | Previous Version | Text Only | Print | Product List | Glossary On
Versions: 1 2 3 4 5 6 7 8 9 10 11 12 13 14 15
000
FTUS44 KMEG 252300
TAFMKL
TAF
KMKL 252333Z 2600/2624 00000KT P6SM SKC
     FM260700 00000KT 3SM BR SKC
      TEMPO 2608/2612 1/2SM FG VV002
     FM261300 20005KT P6SM SCT050=

USA.gov is the U.S. government's official web portal to all federal, state and local government web resources and services.